KBWI/BWI METAR and TAF weather

Enter ICAO airport designator
Station Type Date Time Source
KBWI METAR 2021/01/16 02:54 UTC NOAA

KBWI 160254Z 07003KT 3SM -RA BR SCT007 SCT011 OVC026 08/06 A2969 RMK AO2 SLP054 P0007 60023 T00780061 56023


Station Type Date Time Source
KBWI Decoded METAR 2021/01/16 02:54 UTC NOAA

BALTIMORE-WASHINGTON INTERNATIONAL , MD, United States (KBWI) 39-10N 076-41W 59M
Jan 15, 2021 - 09:54 PM EST / 2021.01.16 0254 UTC
Wind: from the ENE (070 degrees) at 3 MPH (3 KT):0
Visibility: 3 mile(s):0
Sky conditions: overcast
Weather: light rain; mist
Precipitation last hour: 0.07 inches
Temperature: 46.0 F (7.8 C)
Dew Point: 43.0 F (6.1 C)
Relative Humidity: 88%
Pressure (altimeter): 29.69 in. Hg (1005 hPa)
Pressure tendency: 0.07 inches (2.3 hPa) lower than three hours ago
ob: KBWI 160254Z 07003KT 3SM -RA BR SCT007 SCT011 OVC026 08/06 A2969 RMK AO2 SLP054 P0007 60023 T00780061 56023
cycle: 3

Station Type Date Time Source
KBWI TAF 2021/01/16 03:59 UTC NOAA

TAF
AMD KBWI 160259Z 1603/1706 08005KT 4SM -SHRA BR OVC025
FM160400 VRB03KT 5SM BR OVC015
FM160900 30004KT P6SM OVC080
FM162200 27007KT P6SM BKN045
FM170200 27007KT P6SM SCT040

Example: see airport list